Time;durP1;ratioP1;P1;durP2;ratioP2;P2;SDS_P1;SDS_P2;PMS_P1;PMS_P2;Temp;Humidity;BMP_temperature;BMP_pressure;BME280_temperature;BME280_humidity;BME280_pressure;Samples;Min_cycle;Max_cycle;Signal;HPM_P1;HPM_P2
2022/04/04 00:01:42;;;;;;;42.33;8.37;;;-0.60;31.80;;;;;;5057708;28;20465;-60
2022/04/04 00:04:09;;;;;;;39.10;7.30;;;-0.60;31.80;;;;;;5058346;28;20457;-59
2022/04/04 00:06:36;;;;;;;38.00;7.00;;;-0.70;31.60;;;;;;5061818;28;20457;-59
2022/04/04 00:09:02;;;;;;;39.90;7.70;;;-0.70;31.40;;;;;;5063221;28;20897;-59
2022/04/04 00:11:29;;;;;;;46.37;7.37;;;-0.70;31.10;;;;;;5065086;28;20453;-59
2022/04/04 00:13:56;;;;;;;41.70;7.80;;;-0.80;30.80;;;;;;5060400;28;20826;-59
2022/04/04 00:16:23;;;;;;;42.50;7.63;;;-0.80;30.90;;;;;;5069663;28;20477;-60
2022/04/04 00:18:51;;;;;;;37.57;6.87;;;-0.80;31.00;;;;;;5066228;28;20485;-59
2022/04/04 00:21:18;;;;;;;41.70;8.00;;;-0.80;31.50;;;;;;5069477;28;20810;-59
2022/04/04 00:23:44;;;;;;;43.03;7.33;;;-0.80;31.30;;;;;;5060657;28;20924;-60
2022/04/04 00:26:11;;;;;;;41.73;7.70;;;-0.80;31.10;;;;;;5060754;28;20457;-61
2022/04/04 00:28:38;;;;;;;40.27;7.13;;;-0.90;31.50;;;;;;5055514;28;20885;-58
2022/04/04 00:31:05;;;;;;;39.40;6.07;;;-0.80;31.60;;;;;;5062576;28;20996;-58
2022/04/04 00:33:32;;;;;;;40.20;7.50;;;-0.90;31.50;;;;;;5066737;28;20462;-59
2022/04/04 00:36:00;;;;;;;43.73;7.87;;;-0.90;31.30;;;;;;5061309;28;20489;-59
2022/04/04 00:38:27;;;;;;;47.43;8.47;;;-0.90;31.20;;;;;;5061670;28;20482;-58
2022/04/04 00:40:53;;;;;;;44.80;7.80;;;-0.90;30.90;;;;;;5063127;28;20473;-58
2022/04/04 00:43:20;;;;;;;43.80;8.40;;;-0.90;31.60;;;;;;5061352;28;20517;-57
2022/04/04 00:45:47;;;;;;;42.37;9.53;;;-1.00;30.90;;;;;;5065324;28;20882;-57
2022/04/04 00:48:14;;;;;;;47.20;9.80;;;-1.00;31.10;;;;;;5064502;28;20481;-59
2022/04/04 00:50:41;;;;;;;43.37;7.20;;;-1.00;31.00;;;;;;5065292;28;20979;-58
2022/04/04 00:53:11;;;;;;;39.33;6.13;;;-1.00;31.00;;;;;;5067051;28;20453;-62
2022/04/04 00:55:37;;;;;;;40.23;6.93;;;-1.00;31.70;;;;;;5072503;28;20849;-58
2022/04/04 00:58:05;;;;;;;40.50;7.60;;;-1.00;31.60;;;;;;5069394;28;20485;-58
2022/04/04 01:00:32;;;;;;;40.47;8.33;;;-1.00;31.60;;;;;;5059225;28;20461;-60
2022/04/04 01:02:59;;;;;;;45.13;7.80;;;-1.00;31.80;;;;;;5062943;28;20457;-58
2022/04/04 01:05:26;;;;;;;45.63;10.43;;;-1.10;31.60;;;;;;5063790;28;20464;-59
2022/04/04 01:07:53;;;;;;;41.83;8.53;;;-1.10;31.80;;;;;;5062636;28;20485;-58
2022/04/04 01:10:21;;;;;;;44.07;9.27;;;-1.10;32.00;;;;;;5060251;28;20457;-59
2022/04/04 01:12:52;;;;;;;43.10;8.53;;;-1.10;32.30;;;;;;5068010;28;20463;-60
2022/04/04 01:15:19;;;;;;;42.90;9.17;;;-1.10;32.60;;;;;;5062770;28;20884;-61
2022/04/04 01:17:46;;;;;;;44.50;8.60;;;-1.10;32.40;;;;;;5068015;28;20617;-59
2022/04/04 01:20:14;;;;;;;43.40;9.60;;;-1.10;32.70;;;;;;5053253;28;20465;-58
2022/04/04 01:22:41;;;;;;;42.10;8.87;;;-1.10;32.70;;;;;;5059585;28;20472;-61
2022/04/04 01:25:10;;;;;;;49.17;8.50;;;-1.10;32.90;;;;;;5065282;28;20913;-60
2022/04/04 01:27:39;;;;;;;45.87;9.30;;;-1.10;32.90;;;;;;5068642;28;20476;-60
2022/04/04 01:30:07;;;;;;;43.93;10.20;;;-1.10;33.00;;;;;;5065696;28;20493;-60
2022/04/04 01:32:34;;;;;;;51.93;13.30;;;-1.10;33.10;;;;;;5067454;28;20469;-61
2022/04/04 01:35:01;;;;;;;50.90;12.30;;;-1.10;33.20;;;;;;5060802;28;20462;-60
2022/04/04 01:37:28;;;;;;;44.63;9.60;;;-1.10;34.00;;;;;;5058462;28;20492;-58
2022/04/04 01:39:55;;;;;;;45.27;9.73;;;-1.10;34.60;;;;;;5058438;28;20469;-59
2022/04/04 01:42:23;;;;;;;41.13;8.47;;;-1.10;34.50;;;;;;5067665;28;20460;-60
2022/04/04 01:44:49;;;;;;;44.60;8.40;;;-1.10;34.30;;;;;;5062501;28;20457;-58
2022/04/04 01:47:16;;;;;;;47.93;10.20;;;-1.20;34.10;;;;;;5066542;28;20450;-60
2022/04/04 01:49:43;;;;;;;46.90;11.50;;;-1.20;34.00;;;;;;5073646;28;20516;-58
2022/04/04 01:52:10;;;;;;;55.13;13.73;;;-1.20;34.00;;;;;;5072970;28;20468;-57
2022/04/04 01:54:37;;;;;;;57.17;13.93;;;-1.30;33.80;;;;;;5067352;28;20446;-59
2022/04/04 01:57:04;;;;;;;45.57;10.40;;;-1.20;33.70;;;;;;5063745;28;20779;-59
2022/04/04 01:59:32;;;;;;;45.63;9.57;;;-1.20;33.70;;;;;;5058688;28;20854;-59
2022/04/04 02:01:59;;;;;;;44.40;9.80;;;-1.20;33.60;;;;;;5054286;28;20478;-60
2022/04/04 02:04:26;;;;;;;42.13;9.17;;;-1.20;33.40;;;;;;5067255;28;20464;-58
2022/04/04 02:06:53;;;;;;;42.63;8.43;;;-1.30;33.30;;;;;;5062901;28;20466;-59
2022/04/04 02:09:19;;;;;;;46.27;9.40;;;-1.30;33.40;;;;;;5062418;28;20477;-59
2022/04/04 02:11:47;;;;;;;45.20;10.10;;;-1.30;33.30;;;;;;5059003;28;20951;-58
2022/04/04 02:14:15;;;;;;;42.50;9.87;;;-1.30;33.50;;;;;;5062772;28;20464;-58
2022/04/04 02:16:43;;;;;;;45.87;9.57;;;-1.30;33.40;;;;;;5065473;28;20469;-60
2022/04/04 02:19:10;;;;;;;43.47;9.33;;;-1.30;33.50;;;;;;5063827;28;20477;-57
2022/04/04 02:21:37;;;;;;;46.33;10.17;;;-1.40;33.40;;;;;;5061211;28;20458;-57
2022/04/04 02:24:05;;;;;;;43.57;9.53;;;-1.40;33.70;;;;;;5057786;28;20472;-58
2022/04/04 02:26:32;;;;;;;46.67;9.27;;;-1.40;33.70;;;;;;5068344;28;20457;-59
2022/04/04 02:28:58;;;;;;;45.07;10.50;;;-1.40;34.00;;;;;;5056526;28;20485;-58
2022/04/04 02:31:25;;;;;;;48.27;10.20;;;-1.40;34.10;;;;;;5064872;28;20473;-59
2022/04/04 02:33:53;;;;;;;44.00;9.93;;;-1.40;34.40;;;;;;5063494;28;20824;-57
2022/04/04 02:36:21;;;;;;;44.00;10.33;;;-1.40;35.20;;;;;;5064708;28;20485;-58
2022/04/04 02:38:48;;;;;;;43.93;8.70;;;-1.40;34.80;;;;;;5062955;28;20557;-59
2022/04/04 02:41:15;;;;;;;46.03;9.67;;;-1.40;34.40;;;;;;5062301;28;20461;-59
2022/04/04 02:43:41;;;;;;;45.30;10.10;;;-1.40;34.20;;;;;;5058589;28;20477;-58
2022/04/04 02:46:11;;;;;;;43.00;8.67;;;-1.40;34.40;;;;;;5057356;28;20453;-59
2022/04/04 02:48:38;;;;;;;42.60;9.57;;;-1.40;34.30;;;;;;5055534;28;20536;-58
2022/04/04 02:51:07;;;;;;;42.70;9.63;;;-1.30;34.40;;;;;;5062108;28;20449;-59
2022/04/04 02:53:34;;;;;;;43.33;8.97;;;-1.40;34.90;;;;;;5065162;28;20503;-57
2022/04/04 02:58:45;;;;;;;45.60;10.47;;;-1.40;34.50;;;;;;5059346;28;20476;-60
2022/04/04 03:01:11;;;;;;;44.67;10.63;;;-1.40;34.60;;;;;;5061588;28;20461;-58
2022/04/04 03:03:40;;;;;;;44.90;9.20;;;-1.40;34.90;;;;;;5060187;28;20850;-59
2022/04/04 03:06:08;;;;;;;44.57;10.13;;;-1.40;35.10;;;;;;5063202;28;20530;-60
2022/04/04 03:08:36;;;;;;;44.07;9.67;;;-1.40;35.00;;;;;;5064194;28;20477;-59
2022/04/04 03:11:03;;;;;;;47.47;10.60;;;-1.40;35.10;;;;;;5057906;28;20473;-59
2022/04/04 03:13:30;;;;;;;49.43;10.30;;;-1.40;35.00;;;;;;5068321;28;20978;-59
2022/04/04 03:15:57;;;;;;;44.17;9.20;;;-1.40;34.90;;;;;;5061589;28;20477;-59
2022/04/04 03:18:25;;;;;;;43.63;9.27;;;-1.40;34.60;;;;;;5070869;28;20476;-60
2022/04/04 03:20:51;;;;;;;44.17;10.13;;;-1.40;34.50;;;;;;5067647;28;20460;-59
2022/04/04 03:23:20;;;;;;;47.90;10.30;;;-1.50;34.60;;;;;;5068183;28;20457;-60
2022/04/04 03:25:47;;;;;;;44.33;8.87;;;-1.50;34.60;;;;;;5068775;28;20544;-60
2022/04/04 03:28:14;;;;;;;46.20;9.90;;;-1.50;34.70;;;;;;5060065;28;20703;-59
2022/04/04 03:30:41;;;;;;;45.80;9.73;;;-1.50;34.80;;;;;;5060224;28;20528;-58
2022/04/04 03:33:08;;;;;;;45.80;9.73;;;-1.50;34.50;;;;;;5054359;28;20476;-59
2022/04/04 03:35:35;;;;;;;45.97;9.73;;;-1.50;34.50;;;;;;5064923;28;20468;-59
2022/04/04 03:38:04;;;;;;;45.47;9.50;;;-1.50;34.60;;;;;;5060781;28;20473;-59
2022/04/04 03:40:32;;;;;;;45.80;10.23;;;-1.60;34.70;;;;;;5062879;28;20508;-59
2022/04/04 03:43:00;;;;;;;43.30;9.73;;;-1.60;34.80;;;;;;5065722;28;20458;-58
2022/04/04 03:45:28;;;;;;;45.80;9.47;;;-1.60;35.10;;;;;;5068712;28;20457;-59
2022/04/04 03:47:55;;;;;;;47.93;9.50;;;-1.60;35.10;;;;;;5066897;28;20483;-58
2022/04/04 03:50:22;;;;;;;42.00;8.67;;;-1.60;35.20;;;;;;5056677;28;20860;-61
2022/04/04 03:52:51;;;;;;;45.00;9.80;;;-1.60;35.40;;;;;;5060239;28;20503;-61
2022/04/04 03:55:19;;;;;;;44.60;9.57;;;-1.60;35.50;;;;;;5057746;28;20462;-61
2022/04/04 03:57:48;;;;;;;44.60;8.53;;;-1.60;35.50;;;;;;5063108;28;20482;-60
2022/04/04 04:00:16;;;;;;;44.57;10.03;;;-1.60;35.70;;;;;;5063520;28;20488;-60
2022/04/04 04:02:43;;;;;;;45.60;8.83;;;-1.60;35.90;;;;;;5064243;28;20461;-59
2022/04/04 04:05:10;;;;;;;44.90;10.40;;;-1.60;35.80;;;;;;5066809;28;20461;-60
2022/04/04 04:07:37;;;;;;;45.57;10.03;;;-1.60;36.00;;;;;;5056889;28;20477;-61
2022/04/04 04:10:05;;;;;;;43.47;9.00;;;-1.60;35.90;;;;;;5064637;28;20465;-60
2022/04/04 04:12:32;;;;;;;45.60;9.63;;;-1.60;36.00;;;;;;5065542;28;20461;-61
2022/04/04 04:15:00;;;;;;;48.57;10.33;;;-1.60;36.00;;;;;;5059997;28;20458;-61
2022/04/04 04:17:27;;;;;;;45.00;9.70;;;-1.60;36.10;;;;;;5058687;28;20484;-60
2022/04/04 04:22:38;;;;;;;45.70;10.37;;;-1.70;36.10;;;;;;5064262;28;20498;-61
2022/04/04 04:25:08;;;;;;;48.63;11.80;;;-1.70;36.20;;;;;;5064293;28;20461;-60
2022/04/04 04:27:35;;;;;;;51.03;12.67;;;-1.70;36.30;;;;;;5056024;28;20481;-61
2022/04/04 04:30:04;;;;;;;47.67;10.97;;;-1.70;36.20;;;;;;5064701;28;20468;-60
2022/04/04 04:32:30;;;;;;;46.03;9.87;;;-1.70;36.90;;;;;;5056395;28;20474;-59
2022/04/04 04:34:57;;;;;;;45.67;10.17;;;-1.70;36.70;;;;;;5060132;28;20462;-59
2022/04/04 04:37:24;;;;;;;50.30;12.30;;;-1.70;36.60;;;;;;5065713;28;20572;-60
2022/04/04 04:39:51;;;;;;;51.80;12.43;;;-1.70;36.50;;;;;;5061159;28;21034;-59
2022/04/04 04:42:18;;;;;;;50.13;15.70;;;-1.80;36.10;;;;;;5060314;28;20472;-60
2022/04/04 04:44:45;;;;;;;51.83;13.10;;;-1.70;36.20;;;;;;5058652;28;21206;-58
2022/04/04 04:47:14;;;;;;;56.43;14.40;;;-1.80;36.00;;;;;;5059976;28;20475;-59
2022/04/04 04:49:41;;;;;;;50.47;12.53;;;-1.70;36.00;;;;;;5065967;28;20477;-59
2022/04/04 04:52:08;;;;;;;47.63;10.90;;;-1.70;36.10;;;;;;5060744;28;20465;-62
2022/04/04 04:54:34;;;;;;;47.47;12.17;;;-1.70;35.90;;;;;;5064844;28;20834;-61
2022/04/04 04:57:01;;;;;;;46.40;11.30;;;-1.70;36.00;;;;;;5062039;28;21041;-62
2022/04/04 04:59:28;;;;;;;45.17;9.77;;;-1.70;36.10;;;;;;5069843;28;20967;-62
2022/04/04 05:01:55;;;;;;;46.93;9.87;;;-1.60;36.10;;;;;;5063584;28;20481;-60
2022/04/04 05:04:23;;;;;;;44.47;9.90;;;-1.60;36.30;;;;;;5061467;28;20461;-63
2022/04/04 05:06:50;;;;;;;44.60;9.73;;;-1.50;36.30;;;;;;5062906;28;20458;-64
2022/04/04 05:09:17;;;;;;;49.90;12.60;;;-1.50;36.20;;;;;;5062996;28;20469;-63
2022/04/04 05:11:44;;;;;;;44.50;9.30;;;-1.40;36.50;;;;;;5067477;28;20457;-62
2022/04/04 05:14:15;;;;;;;46.13;13.00;;;-1.20;36.90;;;;;;5061770;28;20540;-63
2022/04/04 05:16:42;;;;;;;45.20;10.20;;;-1.10;37.10;;;;;;5065904;28;21202;-62
2022/04/04 05:19:09;;;;;;;45.60;10.00;;;-0.90;37.10;;;;;;5062018;28;20485;-61
2022/04/04 05:21:37;;;;;;;41.57;9.00;;;-0.70;37.20;;;;;;5057870;28;21074;-61
2022/04/04 05:24:05;;;;;;;43.57;9.73;;;-0.30;36.00;;;;;;5060526;28;20472;-64
2022/04/04 05:26:32;;;;;;;45.40;9.90;;;0.20;35.00;;;;;;5061951;28;20449;-62
2022/04/04 05:28:59;;;;;;;45.83;10.53;;;0.90;33.70;;;;;;5068145;28;20485;-61
2022/04/04 05:31:26;;;;;;;43.77;9.50;;;1.50;32.00;;;;;;5066566;28;20465;-64
2022/04/04 05:33:54;;;;;;;43.33;8.60;;;1.60;30.80;;;;;;5066430;28;20464;-64
2022/04/04 05:36:21;;;;;;;46.13;9.73;;;1.60;30.40;;;;;;5057915;28;20461;-61
2022/04/04 05:38:50;;;;;;;39.77;7.77;;;1.60;30.10;;;;;;5068568;28;20473;-61
2022/04/04 05:41:17;;;;;;;39.80;8.30;;;1.70;29.90;;;;;;5067196;28;20465;-63
2022/04/04 05:43:46;;;;;;;41.70;9.07;;;2.10;29.50;;;;;;5060561;28;20465;-64
2022/04/04 05:46:13;;;;;;;44.43;10.53;;;2.40;28.60;;;;;;5058933;28;20504;-61
2022/04/04 05:48:40;;;;;;;40.73;8.87;;;2.60;27.90;;;;;;5065259;28;20484;-61
2022/04/04 05:51:08;;;;;;;41.47;9.70;;;2.80;28.00;;;;;;5063682;28;20465;-61
2022/04/04 05:53:35;;;;;;;41.77;8.80;;;3.10;28.60;;;;;;5060962;28;20452;-63
2022/04/04 05:56:03;;;;;;;40.73;8.70;;;3.30;29.40;;;;;;5058633;28;21033;-60
2022/04/04 05:58:30;;;;;;;41.40;9.17;;;3.60;28.50;;;;;;5062820;28;20481;-61
2022/04/04 06:00:58;;;;;;;43.03;9.80;;;3.80;27.70;;;;;;5059693;28;20562;-61
2022/04/04 06:03:24;;;;;;;41.37;9.13;;;4.00;27.20;;;;;;5059329;28;20454;-63
2022/04/04 06:05:51;;;;;;;38.17;7.93;;;4.40;26.20;;;;;;5056655;28;20457;-64
2022/04/04 06:08:19;;;;;;;40.23;8.43;;;4.90;24.00;;;;;;5058913;28;21171;-61
2022/04/04 06:10:46;;;;;;;39.33;8.23;;;5.20;22.20;;;;;;5059471;28;20981;-62
2022/04/04 06:13:15;;;;;;;39.30;8.40;;;5.50;21.00;;;;;;5055963;28;20836;-63
2022/04/04 06:15:42;;;;;;;37.90;7.40;;;5.90;19.90;;;;;;5057682;28;20457;-61
2022/04/04 06:18:09;;;;;;;38.40;7.67;;;6.20;19.10;;;;;;5065418;28;20485;-64
2022/04/04 06:20:36;;;;;;;38.93;8.43;;;6.90;18.10;;;;;;5058378;28;20469;-62
2022/04/04 06:23:04;;;;;;;39.20;8.77;;;7.90;16.30;;;;;;5061971;28;20458;-63
2022/04/04 06:25:31;;;;;;;38.77;8.07;;;9.10;14.60;;;;;;5068102;28;20496;-61
2022/04/04 06:27:58;;;;;;;37.20;8.17;;;10.40;12.70;;;;;;5061352;28;20476;-61
2022/04/04 06:30:28;;;;;;;36.97;8.50;;;11.70;10.60;;;;;;5063301;28;20465;-62
2022/04/04 06:32:55;;;;;;;36.70;8.47;;;13.10;8.20;;;;;;5051453;28;20454;-62
2022/04/04 06:35:23;;;;;;;37.00;9.30;;;14.40;5.80;;;;;;5055150;28;20465;-62
2022/04/04 06:37:52;;;;;;;36.67;8.03;;;15.70;3.50;;;;;;5066218;28;20522;-63
2022/04/04 06:40:20;;;;;;;35.70;7.93;;;16.90;2.10;;;;;;5070650;28;20526;-67
2022/04/04 06:42:48;;;;;;;35.17;7.57;;;18.00;1.00;;;;;;5066442;28;20470;-64
2022/04/04 06:45:15;;;;;;;36.50;8.20;;;19.20;1.00;;;;;;5071116;28;20465;-61
2022/04/04 06:47:44;;;;;;;34.00;7.57;;;20.30;1.00;;;;;;5061513;28;20473;-61
2022/04/04 06:50:13;;;;;;;33.90;8.30;;;21.50;1.00;;;;;;5064533;28;20810;-64
2022/04/04 06:52:40;;;;;;;34.27;7.63;;;22.60;1.00;;;;;;5070751;28;20964;-64
2022/04/04 06:55:08;;;;;;;34.93;8.93;;;23.70;1.00;;;;;;5068884;28;20460;-63
2022/04/04 06:57:35;;;;;;;32.50;7.77;;;24.40;1.00;;;;;;5066066;28;20484;-63
2022/04/04 07:00:02;;;;;;;34.10;8.63;;;25.10;1.00;;;;;;5060538;28;20963;-63
2022/04/04 07:02:28;;;;;;;32.43;7.63;;;26.00;1.00;;;;;;5062530;28;20539;-66
2022/04/04 07:04:56;;;;;;;32.30;6.87;;;26.50;1.00;;;;;;5066181;28;20836;-66
2022/04/04 07:07:24;;;;;;;32.90;7.87;;;27.10;1.00;;;;;;5063577;28;20535;-66
2022/04/04 07:09:51;;;;;;;32.60;7.33;;;27.40;1.00;;;;;;5066153;28;20487;-65
2022/04/04 07:12:18;;;;;;;31.60;7.93;;;27.70;1.00;;;;;;5066497;28;20456;-65
2022/04/04 07:14:45;;;;;;;30.40;7.30;;;28.10;1.00;;;;;;5059351;28;20458;-64
2022/04/04 07:17:11;;;;;;;31.90;8.00;;;28.50;1.00;;;;;;5062861;28;20473;-66
2022/04/04 07:19:38;;;;;;;31.80;7.50;;;28.90;1.00;;;;;;5067282;28;20496;-67
2022/04/04 07:22:06;;;;;;;34.30;8.50;;;29.50;1.00;;;;;;5057770;28;20466;-56
2022/04/04 07:24:33;;;;;;;31.00;7.53;;;30.00;1.00;;;;;;5065692;28;20468;-58
2022/04/04 07:27:00;;;;;;;32.00;8.77;;;30.60;1.00;;;;;;5062423;28;20464;-58
2022/04/04 07:29:27;;;;;;;30.77;7.80;;;31.10;1.00;;;;;;5055475;28;20538;-57
2022/04/04 07:31:54;;;;;;;34.00;8.00;;;31.50;1.00;;;;;;5058339;28;20482;-59
2022/04/04 07:34:21;;;;;;;30.60;8.57;;;32.00;1.00;;;;;;5063182;28;20460;-61
2022/04/04 07:36:48;;;;;;;29.93;7.83;;;32.60;1.00;;;;;;5069459;28;20518;-60
2022/04/04 07:39:16;;;;;;;30.83;7.63;;;32.90;1.00;;;;;;5065557;28;20481;-58
2022/04/04 07:41:42;;;;;;;28.87;7.00;;;33.20;1.00;;;;;;5061010;28;20470;-59
2022/04/04 07:44:10;;;;;;;28.77;7.60;;;33.40;1.00;;;;;;5068995;28;20951;-59
2022/04/04 07:46:36;;;;;;;29.10;7.20;;;33.60;1.00;;;;;;5067086;28;20461;-59
2022/04/04 07:49:03;;;;;;;27.73;7.57;;;33.80;1.00;;;;;;5062950;28;20477;-57
2022/04/04 07:51:30;;;;;;;30.60;8.30;;;34.00;1.00;;;;;;5059266;28;20465;-59
2022/04/04 07:53:56;;;;;;;27.90;6.83;;;34.20;1.00;;;;;;5068128;28;20449;-59
2022/04/04 07:56:25;;;;;;;28.20;6.50;;;34.70;1.00;;;;;;5062316;28;20458;-59
2022/04/04 07:58:51;;;;;;;28.73;7.03;;;35.00;1.00;;;;;;5065662;28;20529;-59
2022/04/04 08:01:18;;;;;;;27.73;6.20;;;35.40;1.00;;;;;;5065312;28;20473;-59
2022/04/04 08:03:45;;;;;;;27.00;6.67;;;35.70;1.00;;;;;;5062608;28;20457;-60
2022/04/04 08:06:12;;;;;;;26.27;6.27;;;36.10;1.00;;;;;;5071116;28;20842;-59
2022/04/04 08:08:38;;;;;;;26.97;6.87;;;36.20;1.00;;;;;;5066719;28;20477;-59
2022/04/04 08:11:08;;;;;;;27.13;7.00;;;36.50;1.00;;;;;;5068200;28;20449;-60
2022/04/04 08:13:37;;;;;;;27.20;6.30;;;36.60;1.00;;;;;;5065466;28;20551;-59
2022/04/04 08:16:05;;;;;;;27.50;6.63;;;36.70;1.00;;;;;;5069827;28;20493;-60
2022/04/04 08:18:31;;;;;;;27.60;6.53;;;37.00;1.00;;;;;;5061610;28;20861;-60
2022/04/04 08:20:58;;;;;;;28.30;6.70;;;37.10;1.00;;;;;;5065626;28;20460;-59
2022/04/04 08:23:29;;;;;;;26.77;6.50;;;37.20;1.00;;;;;;5061011;28;20461;-59
2022/04/04 08:25:57;;;;;;;28.00;5.87;;;37.30;1.00;;;;;;5062017;28;21154;-60
2022/04/04 08:28:23;;;;;;;26.40;5.80;;;37.40;1.00;;;;;;5066600;28;20606;-61
2022/04/04 08:30:52;;;;;;;26.67;5.93;;;37.70;1.00;;;;;;5074943;28;20461;-60
2022/04/04 08:33:19;;;;;;;25.93;5.37;;;37.80;1.00;;;;;;5078706;28;20457;-61
2022/04/04 08:35:46;;;;;;;25.30;5.67;;;38.20;1.00;;;;;;5088081;28;20456;-61
2022/04/04 08:38:13;;;;;;;25.10;5.20;;;38.30;1.00;;;;;;5082160;28;20507;-61
2022/04/04 08:40:40;;;;;;;25.70;5.67;;;38.40;1.00;;;;;;5075683;28;20468;-60
2022/04/04 08:43:12;;;;;;;26.07;6.00;;;38.30;1.00;;;;;;5065478;28;20841;-60
2022/04/04 08:45:42;;;;;;;25.40;5.50;;;38.20;1.00;;;;;;5069911;28;20465;-61
2022/04/04 08:48:10;;;;;;;25.60;5.70;;;38.30;1.00;;;;;;5057191;28;20484;-60
2022/04/04 08:50:39;;;;;;;25.80;6.60;;;38.20;1.00;;;;;;5059938;28;20468;-61
2022/04/04 08:53:06;;;;;;;27.63;5.83;;;38.20;1.00;;;;;;5063291;28;20462;-62
2022/04/04 08:55:34;;;;;;;27.70;5.53;;;38.10;1.00;;;;;;5063903;28;20489;-60
2022/04/04 08:58:02;;;;;;;25.17;5.53;;;38.30;1.00;;;;;;5058492;28;20485;-62
2022/04/04 09:00:29;;;;;;;26.57;6.07;;;38.30;1.00;;;;;;5051656;28;20475;-60
2022/04/04 09:02:57;;;;;;;25.53;5.20;;;38.40;1.00;;;;;;5062672;28;20466;-60
2022/04/04 09:05:29;;;;;;;25.43;4.93;;;38.60;1.00;;;;;;5054186;28;20520;-60
2022/04/04 09:08:01;;;;;;;27.83;5.60;;;38.50;1.00;;;;;;5058241;28;20508;-60
2022/04/04 09:10:32;;;;;;;25.70;6.17;;;38.60;1.00;;;;;;5052543;28;20981;-59
2022/04/04 09:13:09;;;;;;;25.70;5.93;;;38.60;1.00;;;;;;5053272;28;20473;-61
2022/04/04 09:15:59;;;;;;;26.70;5.77;;;37.90;1.00;;;;;;5058402;28;20462;-60
2022/04/04 09:18:45;;;;;;;25.90;5.97;;;36.90;1.00;;;;;;5060196;28;20675;-60
2022/04/04 09:21:27;;;;;;;25.80;5.20;;;37.30;1.00;;;;;;5056745;28;20461;-61
2022/04/04 09:23:55;;;;;;;25.50;5.93;;;37.50;1.00;;;;;;5056301;28;20483;-61
2022/04/04 09:26:29;;;;;;;25.50;5.77;;;37.80;1.00;;;;;;5060194;28;20491;-61
2022/04/04 09:28:56;;;;;;;25.10;5.50;;;37.90;1.00;;;;;;5059986;28;20539;-59
2022/04/04 09:31:23;;;;;;;25.67;5.17;;;37.30;1.00;;;;;;5053352;28;20470;-61
2022/04/04 09:33:51;;;;;;;27.20;4.77;;;36.90;1.00;;;;;;5056164;28;20551;-60
2022/04/04 09:36:19;;;;;;;25.80;5.10;;;36.80;1.00;;;;;;5064544;28;20461;-61
2022/04/04 09:38:56;;;;;;;24.90;5.10;;;37.20;1.00;;;;;;5060740;28;20856;-67
2022/04/04 09:41:25;;;;;;;25.53;5.07;;;37.60;1.00;;;;;;5065927;28;20572;-58
2022/04/04 09:43:53;;;;;;;25.10;5.00;;;37.90;1.00;;;;;;5054405;28;20523;-64
2022/04/04 09:46:20;;;;;;;25.77;5.73;;;38.00;1.00;;;;;;5051316;28;20467;-63
2022/04/04 09:49:10;;;;;;;26.67;5.80;;;38.00;1.00;;;;;;5055145;28;20523;-66
2022/04/04 09:51:41;;;;;;;26.00;5.80;;;37.90;1.00;;;;;;5061412;28;20457;-65
2022/04/04 09:54:10;;;;;;;25.33;5.93;;;38.00;1.00;;;;;;5053775;28;21839;-65
2022/04/04 09:56:37;;;;;;;27.83;7.10;;;38.10;1.00;;;;;;5056427;28;20966;-66
2022/04/04 09:59:04;;;;;;;25.70;5.90;;;38.00;1.00;;;;;;5059135;28;20500;-65
2022/04/04 10:01:33;;;;;;;25.80;5.23;;;37.70;1.00;;;;;;5063542;28;20481;-65
2022/04/04 10:04:01;;;;;;;26.37;5.73;;;37.50;1.00;;;;;;5062625;28;20462;-64
2022/04/04 10:06:30;;;;;;;26.20;5.80;;;37.30;1.00;;;;;;5054308;28;20462;-63
2022/04/04 10:09:00;;;;;;;26.70;6.17;;;37.10;1.00;;;;;;5061004;28;20474;-64
2022/04/04 10:11:28;;;;;;;27.30;6.20;;;37.00;1.00;;;;;;5060552;28;20456;-63
2022/04/04 10:13:55;;;;;;;28.17;6.27;;;37.00;1.00;;;;;;5061579;28;20773;-64
2022/04/04 10:16:23;;;;;;;27.80;5.53;;;36.90;1.00;;;;;;5060190;28;20465;-63
2022/04/04 10:18:50;;;;;;;26.53;6.27;;;36.80;1.00;;;;;;5060871;28;20550;-63
2022/04/04 10:21:18;;;;;;;27.53;5.87;;;36.70;1.00;;;;;;5062026;28;20469;-63
2022/04/04 10:23:48;;;;;;;30.80;7.20;;;36.00;1.00;;;;;;5060956;28;20465;-64
2022/04/04 10:26:19;;;;;;;27.30;6.80;;;35.50;1.00;;;;;;5059631;28;20477;-64
2022/04/04 10:28:48;;;;;;;27.50;6.60;;;35.50;1.00;;;;;;5060307;28;21265;-63
2022/04/04 10:31:18;;;;;;;29.00;7.07;;;35.80;1.00;;;;;;5061832;28;21265;-63
2022/04/04 10:33:46;;;;;;;27.63;6.90;;;35.40;1.00;;;;;;5060404;28;20460;-63
2022/04/04 10:36:15;;;;;;;27.53;6.10;;;34.30;1.00;;;;;;5060383;28;20856;-61
2022/04/04 10:38:48;;;;;;;27.83;6.40;;;34.60;1.00;;;;;;5059499;28;21113;-58
2022/04/04 10:41:18;;;;;;;28.47;8.17;;;34.70;1.00;;;;;;5057765;28;21461;-59
2022/04/04 10:43:46;;;;;;;29.03;7.47;;;34.10;1.00;;;;;;5060224;28;20465;-58
2022/04/04 10:46:14;;;;;;;29.07;7.63;;;33.10;1.00;;;;;;5060398;28;20464;-59
2022/04/04 10:48:43;;;;;;;29.70;7.07;;;32.30;1.00;;;;;;5060859;28;20972;-59
2022/04/04 10:51:12;;;;;;;29.47;7.60;;;31.60;1.00;;;;;;5061302;28;20468;-58
2022/04/04 10:53:43;;;;;;;30.37;7.50;;;31.10;1.00;;;;;;5061126;28;21035;-59
2022/04/04 10:56:12;;;;;;;31.43;7.33;;;31.30;1.00;;;;;;5060176;28;20936;-60
2022/04/04 10:58:40;;;;;;;29.90;7.63;;;30.20;1.00;;;;;;5055891;28;20559;-60
2022/04/04 11:01:09;;;;;;;29.70;6.80;;;29.00;1.00;;;;;;5057610;28;20473;-60
2022/04/04 11:03:37;;;;;;;29.80;6.37;;;29.50;1.00;;;;;;5060591;28;20958;-59
2022/04/04 11:09:18;;;;;;;31.20;9.70;;;28.80;1.00;;;;;;5052824;28;20561;-60
2022/04/04 11:11:48;;;;;;;31.07;7.27;;;29.20;1.00;;;;;;5058028;28;21028;-60
2022/04/04 11:14:17;;;;;;;30.30;7.60;;;29.60;1.00;;;;;;5056948;28;20461;-60
2022/04/04 11:17:17;;;;;;;29.47;6.10;;;30.10;1.00;;;;;;5061722;28;20461;-60
2022/04/04 11:19:45;;;;;;;31.10;7.97;;;29.40;1.00;;;;;;5058205;28;20954;-59
2022/04/04 11:22:14;;;;;;;30.67;7.73;;;27.80;1.00;;;;;;5053172;28;20556;-60
2022/04/04 11:24:42;;;;;;;31.07;7.47;;;26.10;1.00;;;;;;5061784;28;20488;-59
2022/04/04 11:27:09;;;;;;;34.23;8.23;;;24.40;1.00;;;;;;5058947;28;20551;-59
2022/04/04 11:29:39;;;;;;;32.47;7.57;;;22.90;1.00;;;;;;5063830;28;20464;-59
2022/04/04 11:32:08;;;;;;;33.57;8.00;;;21.50;1.00;;;;;;5058208;28;20472;-61
2022/04/04 11:34:37;;;;;;;32.27;7.30;;;20.50;1.00;;;;;;5064626;28;20471;-62
2022/04/04 11:37:04;;;;;;;33.70;7.87;;;19.60;1.00;;;;;;5062561;28;20497;-63
2022/04/04 11:39:32;;;;;;;33.40;7.17;;;18.90;1.00;;;;;;5059107;28;20495;-65
2022/04/04 11:41:59;;;;;;;33.40;7.30;;;18.20;1.00;;;;;;5063647;28;20473;-64
2022/04/04 11:44:27;;;;;;;33.87;8.30;;;17.50;1.00;;;;;;5059453;28;20471;-64
2022/04/04 11:47:07;;;;;;;34.60;8.03;;;16.90;1.00;;;;;;5063921;28;20491;-65
2022/04/04 11:49:35;;;;;;;33.67;8.00;;;16.30;1.00;;;;;;5063364;28;20467;-64
2022/04/04 11:52:04;;;;;;;33.93;8.23;;;15.80;1.00;;;;;;5063355;28;20471;-61
2022/04/04 11:54:40;;;;;;;35.00;7.97;;;15.30;1.00;;;;;;5060129;28;20555;-59
2022/04/04 11:57:07;;;;;;;34.83;8.07;;;14.70;1.00;;;;;;5061760;28;20492;-58
2022/04/04 11:59:41;;;;;;;35.57;8.40;;;14.30;1.70;;;;;;5060298;28;20489;-60
2022/04/04 12:02:10;;;;;;;34.60;8.10;;;13.80;2.40;;;;;;5064035;28;21031;-59
2022/04/04 12:04:37;;;;;;;34.70;8.77;;;13.40;2.20;;;;;;5062619;28;21036;-61
2022/04/04 12:07:05;;;;;;;35.70;8.73;;;13.00;3.20;;;;;;5061954;28;20478;-59
2022/04/04 12:09:33;;;;;;;37.47;9.97;;;12.60;4.00;;;;;;5059557;28;20465;-62
2022/04/04 12:12:08;;;;;;;35.93;9.73;;;12.40;5.20;;;;;;5061991;28;21001;-61
2022/04/04 12:14:37;;;;;;;35.50;7.77;;;12.10;5.50;;;;;;5061296;28;20483;-60
2022/04/04 12:17:05;;;;;;;37.63;8.90;;;11.80;5.40;;;;;;5062630;28;20531;-60
2022/04/04 12:19:41;;;;;;;36.40;8.53;;;11.70;6.70;;;;;;5063383;28;20492;-63
2022/04/04 12:24:55;;;;;;;36.67;8.60;;;11.40;6.20;;;;;;5064314;28;20468;-63
2022/04/04 12:24:57;;;;;;;36.90;9.00;;;11.30;8.00;;;;;;5060271;28;20461;-62
2022/04/04 12:27:24;;;;;;;36.37;8.47;;;11.10;7.80;;;;;;5063569;28;20461;-63
2022/04/04 12:29:59;;;;;;;39.03;11.57;;;11.00;8.20;;;;;;5056661;28;20916;-64
2022/04/04 12:32:26;;;;;;;37.23;8.70;;;10.80;7.00;;;;;;5057804;28;20488;-63
2022/04/04 12:34:59;;;;;;;36.50;8.10;;;10.60;7.60;;;;;;5060401;28;21052;-64
2022/04/04 12:37:36;;;;;;;37.93;8.90;;;10.40;8.10;;;;;;5062571;28;20473;-65
2022/04/04 12:40:20;;;;;;;36.70;9.53;;;10.30;9.30;;;;;;5054404;28;20478;-63
2022/04/04 12:42:49;;;;;;;38.20;9.17;;;10.20;9.20;;;;;;5056989;28;20476;-64
2022/04/04 12:45:18;;;;;;;35.80;8.60;;;10.20;9.50;;;;;;5060445;28;20453;-62
2022/04/04 12:47:58;;;;;;;38.43;9.40;;;10.20;10.40;;;;;;5052815;28;20477;-62
2022/04/04 12:50:37;;;;;;;36.70;8.20;;;10.20;10.50;;;;;;5060545;28;20470;-62
2022/04/04 12:53:06;;;;;;;38.60;9.10;;;10.10;9.30;;;;;;5060876;28;20985;-63
2022/04/04 12:55:34;;;;;;;36.43;8.67;;;10.00;10.00;;;;;;5059833;28;20502;-63